Time;durP1;ratioP1;P1;durP2;ratioP2;P2;SDS_P1;SDS_P2;PMS_P1;PMS_P2;Temp;Humidity;BMP_temperature;BMP_pressure;BME280_temperature;BME280_humidity;BME280_pressure;Samples;Min_cycle;Max_cycle;Signal;HPM_P1;HPM_P2
2022/03/05 00:02:07;;;;;;;23.77;3.70;;;;;;;2.77;75.12;99292.69;10333047;28;20125;-80
2022/03/05 00:07:08;;;;;;;13.90;2.38;;;;;;;2.21;74.66;99189.53;10317558;28;20470;-81
2022/03/05 00:12:09;;;;;;;13.85;2.50;;;;;;;3.08;74.56;99297.66;10332631;28;20379;-80
2022/03/05 00:17:09;;;;;;;19.10;2.65;;;;;;;2.61;74.13;99198.91;10331903;28;20038;-86
2022/03/05 00:22:11;;;;;;;16.65;2.47;;;;;;;3.10;75.01;99272.94;10331729;28;20053;-86
2022/03/05 00:27:12;;;;;;;24.23;2.60;;;;;;;2.87;74.77;99241.03;10332784;28;20038;-82
2022/03/05 00:32:12;;;;;;;9.93;2.28;;;;;;;2.12;74.88;99135.38;10333188;28;20037;-84
2022/03/05 00:37:13;;;;;;;7.72;2.42;;;;;;;3.32;73.48;99297.13;10331286;28;20053;-82
2022/03/05 00:42:14;;;;;;;51.58;4.68;;;;;;;2.98;70.77;99232.13;10333640;28;20541;-86
2022/03/05 00:47:15;;;;;;;51.08;4.43;;;;;;;2.28;67.82;99111.19;10339390;28;20054;-81
2022/03/05 00:52:16;;;;;;;30.13;3.90;;;;;;;3.17;67.43;99265.28;10340146;28;20161;-86
2022/03/05 00:57:17;;;;;;;19.20;2.33;;;;;;;2.18;67.29;99120.88;10340477;28;20069;-84
2022/03/05 01:02:18;;;;;;;33.55;4.07;;;;;;;3.00;66.78;99272.16;10338567;28;20034;-84
2022/03/05 01:07:19;;;;;;;22.65;3.30;;;;;;;3.12;67.30;99284.09;10339758;28;20034;-83
2022/03/05 01:12:21;;;;;;;20.13;2.97;;;;;;;3.02;67.45;99279.88;10339312;28;20026;-81
2022/03/05 01:17:23;;;;;;;12.90;2.50;;;;;;;2.55;67.16;99223.09;10338473;28;20045;-82
2022/03/05 01:22:23;;;;;;;11.07;3.13;;;;;;;1.65;66.76;99093.50;10339037;28;20034;-81
2022/03/05 01:27:24;;;;;;;7.45;2.35;;;;;;;2.42;66.46;99223.41;10338347;28;20030;-82
2022/03/05 01:32:25;;;;;;;14.57;3.05;;;;;;;2.90;66.71;99311.56;10338681;28;20050;-80
2022/03/05 01:37:26;;;;;;;10.93;2.80;;;;;;;2.37;65.78;99233.50;10339023;28;20498;-87
2022/03/05 01:42:27;;;;;;;11.95;2.65;;;;;;;2.75;65.91;99292.00;10338762;28;20050;-82
2022/03/05 01:47:28;;;;;;;11.35;3.50;;;;;;;2.15;65.46;99208.44;10338820;28;20120;-84
2022/03/05 01:52:28;;;;;;;11.57;3.60;;;;;;;2.58;65.64;99288.34;10338226;28;20089;-86
2022/03/05 01:57:29;;;;;;;10.13;3.40;;;;;;;2.27;65.51;99257.13;10337412;28;20042;-82
2022/03/05 02:02:30;;;;;;;6.72;3.40;;;;;;;2.21;65.89;99267.31;10337358;28;20034;-85
2022/03/05 02:07:33;;;;;;;6.93;3.10;;;;;;;2.78;65.49;99338.09;10337220;28;20054;-82
2022/03/05 02:12:35;;;;;;;14.35;2.70;;;;;;;2.34;64.88;99288.00;10335823;28;20475;-86
2022/03/05 02:17:37;;;;;;;13.18;2.88;;;;;;;2.68;64.86;99346.00;10337002;28;20397;-85
2022/03/05 02:22:40;;;;;;;10.00;3.15;;;;;;;2.78;65.05;99375.63;10336242;28;20129;-82
2022/03/05 02:27:43;;;;;;;16.15;3.28;;;;;;;2.42;65.53;99323.03;10336384;28;20036;-82
2022/03/05 02:32:44;;;;;;;12.70;3.08;;;;;;;2.61;65.60;99389.50;10335846;28;20034;-81
2022/03/05 02:37:44;;;;;;;21.23;3.92;;;;;;;2.53;66.20;99368.38;10335272;28;20030;-84
2022/03/05 02:42:45;;;;;;;6.28;3.10;;;;;;;2.19;66.09;99319.03;10334628;28;20030;-83
2022/03/05 02:47:46;;;;;;;10.25;3.10;;;;;;;2.21;66.02;99325.78;10336679;28;20050;-86
2022/03/05 02:52:47;;;;;;;11.65;3.38;;;;;;;2.14;66.12;99314.22;10312891;28;20034;-81
2022/03/05 02:57:48;;;;;;;10.80;4.03;;;;;;;2.23;66.52;99328.28;10329092;28;20498;-89
2022/03/05 03:02:49;;;;;;;7.32;3.05;;;;;;;0.96;66.89;99136.38;10294165;28;20038;-89
2022/03/05 03:07:50;;;;;;;6.18;2.40;;;;;;;1.74;67.27;99272.47;10293262;28;20046;-86
2022/03/05 03:12:51;;;;;;;6.78;3.53;;;;;;;2.35;67.71;99391.84;10294032;28;20038;-87
2022/03/05 03:17:53;;;;;;;8.77;3.78;;;;;;;2.23;67.96;99381.50;10292840;28;20045;-82
2022/03/05 03:22:55;;;;;;;8.07;3.72;;;;;;;2.29;68.45;99396.66;10293629;28;20387;-81
2022/03/05 03:27:55;;;;;;;6.43;3.22;;;;;;;2.14;68.30;99379.72;10312525;28;20103;-82
2022/03/05 03:32:56;;;;;;;7.00;3.72;;;;;;;1.31;68.88;99245.69;10328737;28;20526;-89
2022/03/05 03:37:57;;;;;;;6.05;3.75;;;;;;;2.20;68.80;99380.97;10323130;28;20042;-85
2022/03/05 03:42:58;;;;;;;4.22;2.28;;;;;;;1.17;68.75;99222.56;10333103;28;20034;-84
2022/03/05 03:47:59;;;;;;;6.22;3.38;;;;;;;2.28;69.05;99388.97;10332909;28;20073;-87
2022/03/05 03:53:00;;;;;;;5.55;3.40;;;;;;;2.29;69.09;99383.56;10329207;28;20045;-78
2022/03/05 03:58:02;;;;;;;8.98;2.78;;;;;;;2.23;68.94;99357.91;10328352;28;20040;-88
2022/03/05 04:03:02;;;;;;;7.82;3.55;;;;;;;2.44;68.85;99370.88;10324869;28;20140;-81
2022/03/05 04:13:23;;;;;;;7.57;3.45;;;;;;;2.50;68.73;99361.63;10329907;28;20031;-79
2022/03/05 04:18:24;;;;;;;12.80;3.65;;;;;;;2.36;68.60;99331.41;10327022;28;20045;-79
2022/03/05 04:23:25;;;;;;;7.13;3.58;;;;;;;2.65;68.41;99347.09;10326829;28;20387;-80
2022/03/05 04:28:26;;;;;;;4.20;2.55;;;;;;;3.15;68.10;99375.66;10331699;28;20037;-76
2022/03/05 04:33:28;;;;;;;9.57;3.42;;;;;;;3.27;67.09;99365.81;10331435;28;20038;-83
2022/03/05 04:38:30;;;;;;;7.18;2.78;;;;;;;3.31;66.03;99326.97;10331907;28;20034;-81
2022/03/05 04:43:31;;;;;;;13.63;3.92;;;;;;;2.89;65.80;99246.94;10343126;28;20474;-83
2022/03/05 04:48:32;;;;;;;7.68;2.83;;;;;;;3.81;64.50;99379.06;10332009;28;20038;-75
2022/03/05 04:53:33;;;;;;;6.50;3.15;;;;;;;4.00;63.50;99357.91;10332623;28;20133;-80
2022/03/05 04:58:33;;;;;;;22.92;3.72;;;;;;;3.11;62.90;99187.16;10332038;28;20430;-84
2022/03/05 05:03:34;;;;;;;15.30;3.00;;;;;;;2.89;62.52;99125.47;10331515;28;20058;-83
2022/03/05 05:08:35;;;;;;;8.60;3.63;;;;;;;4.70;61.80;99434.28;10332479;28;20039;-81
2022/03/05 05:13:38;;;;;;;8.23;2.80;;;;;;;4.59;61.12;99387.16;10332471;28;20133;-84
2022/03/05 05:18:38;;;;;;;21.98;3.25;;;;;;;4.92;59.88;99406.63;10331620;28;20089;-85
2022/03/05 05:23:39;;;;;;;22.75;3.38;;;;;;;3.95;59.23;99199.03;10330762;28;20073;-82
2022/03/05 05:28:40;;;;;;;34.85;4.10;;;;;;;5.04;58.53;99355.38;10333130;28;20482;-79
2022/03/05 05:33:44;;;;;;;20.15;3.90;;;;;;;5.22;56.48;99367.63;10338494;28;20037;-79
2022/03/05 05:38:45;;;;;;;19.97;3.10;;;;;;;5.58;55.53;99389.34;10338159;28;20030;-82
2022/03/05 05:43:46;;;;;;;36.47;4.78;;;;;;;5.17;55.59;99312.00;10339232;28;20042;-85
2022/03/05 05:48:46;;;;;;;36.22;3.70;;;;;;;5.99;55.35;99404.50;10337889;28;20498;-82
2022/03/05 05:53:47;;;;;;;32.67;3.45;;;;;;;6.08;53.41;99398.25;10337695;28;20045;-82
2022/03/05 05:58:49;;;;;;;36.45;4.10;;;;;;;5.63;53.19;99273.78;10338210;28;20069;-81
2022/03/05 06:03:50;;;;;;;34.55;4.05;;;;;;;6.01;52.50;99307.59;10337270;28;20113;-79
2022/03/05 06:08:51;;;;;;;64.72;6.15;;;;;;;6.47;51.51;99366.78;10337017;28;20117;-82
2022/03/05 06:13:52;;;;;;;56.75;5.68;;;;;;;6.76;50.21;99389.19;10336227;28;20077;-81
2022/03/05 06:18:53;;;;;;;121.75;9.30;;;;;;;6.13;49.76;99287.81;10337509;28;20414;-82
2022/03/05 06:23:53;;;;;;;137.80;11.13;;;;;;;6.67;50.16;99417.44;10336530;28;20566;-79
2022/03/05 06:28:54;;;;;;;138.60;12.13;;;;;;;5.98;49.07;99278.94;10335775;28;20030;-80
2022/03/05 06:33:55;;;;;;;175.07;12.88;;;;;;;6.17;49.29;99310.25;10335462;28;20031;-81
2022/03/05 06:38:56;;;;;;;291.10;16.95;;;;;;;6.43;48.58;99332.97;10335932;28;20382;-81
2022/03/05 06:43:57;;;;;;;181.55;14.20;;;;;;;6.96;48.59;99393.13;10334724;28;20443;-80
2022/03/05 06:48:57;;;;;;;275.95;20.58;;;;;;;6.41;47.73;99261.94;10335648;28;20049;-87
2022/03/05 06:53:58;;;;;;;240.85;19.58;;;;;;;7.18;47.65;99369.63;10335960;28;20067;-81
2022/03/05 06:58:59;;;;;;;309.13;21.10;;;;;;;6.45;47.67;99254.50;10335706;28;20390;-81
2022/03/05 07:04:00;;;;;;;138.27;11.80;;;;;;;6.72;48.13;99271.75;10335422;28;20429;-83
2022/03/05 07:09:01;;;;;;;455.38;31.08;;;;;;;6.39;47.32;99248.91;10334747;28;20030;-83
2022/03/05 07:14:02;;;;;;;441.13;32.00;;;;;;;7.28;47.55;99400.16;10333918;28;20039;-80
2022/03/05 07:19:03;;;;;;;309.98;20.40;;;;;;;7.05;47.57;99336.66;10334918;28;20041;-81
2022/03/05 07:24:04;;;;;;;258.92;21.10;;;;;;;6.59;47.21;99257.28;10334102;28;20045;-82
2022/03/05 07:29:06;;;;;;;312.52;23.45;;;;;;;7.06;47.68;99346.25;10333401;28;20081;-79
2022/03/05 07:34:07;;;;;;;424.58;30.75;;;;;;;7.26;47.04;99330.00;10333802;28;20030;-82
2022/03/05 07:39:08;;;;;;;272.08;19.08;;;;;;;7.30;45.85;99347.97;10333952;28;20042;-82
2022/03/05 07:44:09;;;;;;;348.98;24.73;;;;;;;7.49;45.93;99343.28;10333429;28;20054;-80
2022/03/05 07:49:10;;;;;;;416.35;27.58;;;;;;;7.88;45.88;99353.78;10332727;28;20077;-83
2022/03/05 07:54:11;;;;;;;168.98;12.85;;;;;;;7.74;45.20;99336.03;10332647;28;20066;-81
2022/03/05 07:59:14;;;;;;;399.27;27.60;;;;;;;7.67;45.54;99341.19;10332290;28;20038;-79
2022/03/05 08:04:15;;;;;;;331.77;22.40;;;;;;;7.77;46.08;99352.34;10332330;28;20042;-81
2022/03/05 08:09:15;;;;;;;255.40;19.23;;;;;;;7.23;45.83;99211.47;10332865;28;20042;-80
2022/03/05 08:14:16;;;;;;;198.77;17.10;;;;;;;7.73;44.72;99324.63;10331832;28;20037;-82
2022/03/05 08:19:17;;;;;;;405.48;30.10;;;;;;;8.51;44.38;99365.09;10332296;28;20034;-80
2022/03/05 08:24:18;;;;;;;228.57;17.85;;;;;;;8.69;43.57;99354.19;10331750;28;20129;-81
2022/03/05 08:29:19;;;;;;;295.90;22.77;;;;;;;8.15;44.05;99282.84;10332882;28;20050;-82
2022/03/05 08:34:20;;;;;;;347.75;28.30;;;;;;;8.34;43.50;99348.50;10331878;28;20223;-80
2022/03/05 08:39:21;;;;;;;179.48;15.63;;;;;;;7.52;43.18;99203.69;10331396;28;20038;-81
2022/03/05 08:44:22;;;;;;;248.40;18.75;;;;;;;8.77;44.00;99396.50;10331854;28;20050;-78
2022/03/05 08:49:23;;;;;;;402.48;29.15;;;;;;;8.39;43.57;99355.94;10332235;28;20034;-83
2022/03/05 08:54:25;;;;;;;336.83;25.13;;;;;;;8.84;43.69;99341.78;10331565;28;20427;-79
2022/03/05 08:59:26;;;;;;;333.38;23.92;;;;;;;8.69;43.27;99375.38;10332199;28;20031;-80
2022/03/05 09:04:26;;;;;;;608.63;48.22;;;;;;;9.21;43.02;99403.66;10334750;28;20479;-80
2022/03/05 09:09:27;;;;;;;400.10;33.80;;;;;;;7.81;43.32;99170.44;10339452;28;20034;-79
2022/03/05 09:14:28;;;;;;;400.35;30.40;;;;;;;8.99;44.24;99423.09;10338725;28;20516;-80
2022/03/05 09:19:29;;;;;;;557.92;39.28;;;;;;;8.50;44.23;99286.72;10338972;28;20065;-82
2022/03/05 09:24:29;;;;;;;409.40;29.52;;;;;;;9.42;42.82;99402.09;10339282;28;20125;-80
2022/03/05 09:29:30;;;;;;;512.88;36.63;;;;;;;9.02;42.01;99343.25;10338036;28;20490;-83
2022/03/05 09:34:31;;;;;;;455.30;32.95;;;;;;;9.09;42.98;99379.47;10339221;28;20030;-84
2022/03/05 09:39:32;;;;;;;327.30;22.45;;;;;;;8.84;42.97;99351.56;10338301;28;20042;-81
2022/03/05 09:44:34;;;;;;;339.75;25.85;;;;;;;8.41;41.68;99285.97;10337416;28;20390;-80
2022/03/05 09:49:38;;;;;;;363.75;23.58;;;;;;;9.13;42.18;99395.81;10337598;28;20061;-80
2022/03/05 09:54:39;;;;;;;392.95;27.40;;;;;;;9.16;42.79;99408.69;10338348;28;20038;-81
2022/03/05 09:59:40;;;;;;;421.30;29.85;;;;;;;8.92;43.58;99377.97;10337044;28;20034;-81
2022/03/05 10:04:41;;;;;;;452.65;35.53;;;;;;;8.67;42.93;99362.31;10348154;28;20141;-84
2022/03/05 10:09:46;;;;;;;379.55;29.02;;;;;;;9.03;43.10;99401.34;10360938;28;20068;-78
2022/03/05 10:15:12;;;;;;;861.60;70.07;;;;;;;8.96;43.72;99412.88;10356135;28;20041;-80
2022/03/05 10:20:13;;;;;;;695.55;60.45;;;;;;;9.06;43.24;99371.88;10336725;28;20026;-81
2022/03/05 10:25:14;;;;;;;816.90;75.32;;;;;;;8.75;43.47;99320.88;10336062;28;20030;-84
2022/03/05 12:39:42;;;;;;;560.13;43.37;;;;;;;9.25;45.51;99435.94;10508908;27;1816016;-82
2022/03/05 12:44:43;;;;;;;622.30;50.63;;;;;;;8.91;46.27;99423.97;10537128;28;20849;-81
2022/03/05 12:49:44;;;;;;;687.42;52.58;;;;;;;9.01;46.99;99459.00;10513087;28;20044;-81
2022/03/05 12:54:45;;;;;;;596.60;44.60;;;;;;;8.96;46.58;99466.66;10531885;28;20123;-80
2022/03/05 12:59:46;;;;;;;588.25;45.33;;;;;;;8.89;46.24;99490.41;10513304;28;20048;-80
2022/03/05 13:04:50;;;;;;;500.75;36.72;;;;;;;7.88;46.98;99331.81;10542751;28;20046;-80
2022/03/05 13:10:09;;;;;;;606.45;44.75;;;;;;;8.65;47.52;99488.75;10554579;28;20040;-80
2022/03/05 13:15:22;;;;;;;297.35;22.58;;;;;;;8.59;47.42;99505.34;10570854;28;20197;-78
2022/03/05 13:20:23;;;;;;;472.58;34.42;;;;;;;8.58;47.54;99524.03;10567744;28;20081;-82
2022/03/05 13:25:27;;;;;;;566.25;49.47;;;;;;;7.40;47.70;99360.16;10571162;28;20122;-82
2022/03/05 13:30:28;;;;;;;530.17;41.97;;;;;;;7.57;48.15;99377.59;10529735;28;20135;-82
2022/03/05 13:35:39;;;;;;;317.10;22.35;;;;;;;8.32;48.47;99500.53;10529193;28;20166;-82
2022/03/05 13:40:42;;;;;;;399.33;28.60;;;;;;;8.08;48.19;99498.84;10501795;28;20131;-82
2022/03/05 13:45:43;;;;;;;435.95;33.38;;;;;;;8.07;48.15;99500.63;10483661;28;20544;-79
2022/03/05 13:50:44;;;;;;;464.70;34.88;;;;;;;7.31;49.09;99405.09;10483040;28;20064;-79
2022/03/05 13:55:45;;;;;;;395.50;27.05;;;;;;;7.89;48.99;99502.69;10500823;28;20072;-79
2022/03/05 14:00:46;;;;;;;444.38;31.23;;;;;;;7.93;49.07;99533.09;10499830;28;20031;-80
2022/03/05 14:05:47;;;;;;;602.90;47.80;;;;;;;7.83;49.58;99538.56;10498477;28;20192;-83
2022/03/05 14:10:47;;;;;;;688.63;59.25;;;;;;;7.64;48.19;99507.25;10498031;28;20048;-78
2022/03/05 14:15:49;;;;;;;688.83;53.53;;;;;;;7.42;48.92;99517.53;10479944;28;20097;-79
2022/03/05 14:20:51;;;;;;;484.83;36.97;;;;;;;7.52;48.65;99549.06;10496543;28;20055;-81
2022/03/05 14:25:53;;;;;;;371.13;28.98;;;;;;;7.61;48.93;99576.31;10496622;28;20048;-78
2022/03/05 14:30:55;;;;;;;437.25;31.50;;;;;;;7.29;49.42;99551.56;10476726;28;20381;-84
2022/03/05 14:35:57;;;;;;;518.58;33.90;;;;;;;7.13;50.12;99547.13;10497365;28;20135;-80
2022/03/05 14:40:58;;;;;;;377.90;28.10;;;;;;;6.23;51.15;99440.66;10492943;28;20233;-79
2022/03/05 14:45:59;;;;;;;503.25;33.10;;;;;;;7.19;52.01;99609.84;10481340;28;20123;-82
2022/03/05 14:51:00;;;;;;;377.27;23.40;;;;;;;7.09;52.45;99633.78;10477040;28;20044;-86
2022/03/05 14:56:01;;;;;;;366.05;27.85;;;;;;;6.84;52.61;99624.16;10475971;28;20037;-81
2022/03/05 15:01:02;;;;;;;522.50;36.72;;;;;;;6.23;52.78;99559.31;10475030;28;20061;-79
2022/03/05 15:06:02;;;;;;;687.65;51.97;;;;;;;6.54;53.06;99623.72;10484340;28;20036;-82
2022/03/05 15:11:03;;;;;;;729.67;59.22;;;;;;;6.55;53.99;99637.75;10495621;28;20127;-83
2022/03/05 15:16:04;;;;;;;254.55;21.55;;;;;;;6.48;53.78;99647.28;10495678;28;20040;-80
2022/03/05 15:21:06;;;;;;;430.75;29.08;;;;;;;6.21;54.06;99649.13;10495041;28;20472;-84
2022/03/05 15:26:07;;;;;;;401.75;26.27;;;;;;;6.35;54.62;99701.31;10495547;28;20044;-81
2022/03/05 15:31:12;;;;;;;212.68;16.02;;;;;;;6.25;55.32;99682.16;10493254;28;20064;-82
2022/03/05 15:36:15;;;;;;;233.88;14.10;;;;;;;5.48;55.43;99588.88;10489325;28;20056;-80
2022/03/05 15:41:16;;;;;;;130.43;11.02;;;;;;;5.76;55.29;99655.41;10495235;28;20079;-79
2022/03/05 15:46:17;;;;;;;144.95;10.27;;;;;;;4.87;55.76;99545.72;10496658;28;20045;-78
2022/03/05 15:51:17;;;;;;;161.70;11.88;;;;;;;5.20;56.10;99643.44;10496013;28;20094;-81
2022/03/05 15:56:19;;;;;;;227.75;14.90;;;;;;;5.77;56.78;99746.66;10495650;28;20044;-80
2022/03/05 16:01:20;;;;;;;146.38;8.65;;;;;;;5.41;56.68;99707.16;10493400;28;20044;-80
2022/03/05 16:06:21;;;;;;;117.75;8.27;;;;;;;5.25;57.43;99714.91;10494261;28;20029;-81
2022/03/05 16:11:22;;;;;;;98.55;6.53;;;;;;;5.44;57.93;99766.63;10493743;28;20040;-84
2022/03/05 16:16:23;;;;;;;101.45;6.10;;;;;;;5.20;57.87;99764.53;10494322;28;20098;-82
2022/03/05 16:21:24;;;;;;;78.40;5.82;;;;;;;3.89;58.57;99577.03;10492324;28;20036;-83
2022/03/05 16:26:25;;;;;;;56.38;4.60;;;;;;;4.54;59.36;99729.53;10455467;28;20114;-82
2022/03/05 16:31:26;;;;;;;30.83;3.35;;;;;;;4.29;60.21;99724.94;10473007;28;20408;-83
2022/03/05 16:36:27;;;;;;;15.13;3.00;;;;;;;3.67;60.42;99643.03;10493956;28;20719;-79
2022/03/05 16:41:28;;;;;;;20.85;3.17;;;;;;;4.56;61.67;99829.38;10485814;28;20044;-84
2022/03/05 16:46:45;;;;;;;12.82;3.33;;;;;;;3.26;62.20;99607.41;10492483;28;20397;-80
2022/03/05 16:51:47;;;;;;;18.75;3.20;;;;;;;4.13;62.40;99757.06;10492207;28;20150;-83
2022/03/05 16:56:48;;;;;;;27.35;2.72;;;;;;;4.58;63.03;99830.06;10494257;28;20040;-87
2022/03/05 17:01:49;;;;;;;17.35;4.00;;;;;;;4.21;63.83;99787.91;10490229;28;20036;-80
2022/03/05 17:06:52;;;;;;;24.27;3.92;;;;;;;3.73;64.02;99712.56;10476080;28;20048;-86
2022/03/05 17:11:52;;;;;;;8.35;2.50;;;;;;;4.33;64.44;99839.34;10453827;28;20044;-84
2022/03/05 17:16:54;;;;;;;18.10;3.20;;;;;;;3.77;64.21;99721.81;10473598;28;20132;-80
2022/03/05 17:21:55;;;;;;;20.17;3.60;;;;;;;3.81;63.91;99749.50;10442921;28;20564;-81
2022/03/05 17:26:55;;;;;;;18.70;3.08;;;;;;;4.01;63.91;99793.19;10442080;28;20115;-83
2022/03/05 17:31:58;;;;;;;13.38;3.55;;;;;;;3.39;64.56;99718.25;10459924;28;20065;-82
2022/03/05 17:36:59;;;;;;;18.65;4.22;;;;;;;4.21;64.76;99843.94;10459215;28;20148;-82
2022/03/05 17:42:04;;;;;;;8.75;3.47;;;;;;;4.16;64.84;99845.31;10460234;28;20076;-85
2022/03/05 17:47:05;;;;;;;17.88;3.13;;;;;;;4.08;65.28;99856.53;10459240;28;20044;-82
2022/03/05 17:52:06;;;;;;;9.27;3.47;;;;;;;3.57;65.90;99784.88;10480073;28;20040;-82
2022/03/05 17:57:07;;;;;;;5.40;2.80;;;;;;;4.06;66.43;99864.53;10473819;28;20455;-80
2022/03/05 18:02:08;;;;;;;7.30;3.42;;;;;;;3.04;66.74;99706.44;10479366;28;20048;-82
2022/03/05 18:07:09;;;;;;;16.20;4.07;;;;;;;3.72;67.45;99829.97;10478881;28;20045;-84
2022/03/05 18:12:09;;;;;;;7.85;3.67;;;;;;;3.57;68.06;99826.91;10477025;28;20508;-84
2022/03/05 18:17:11;;;;;;;10.30;3.97;;;;;;;3.34;68.21;99797.41;10485917;28;20411;-83
2022/03/05 18:22:12;;;;;;;7.53;3.15;;;;;;;3.13;68.76;99779.13;10492420;28;20072;-82
2022/03/05 18:27:13;;;;;;;6.43;3.33;;;;;;;2.89;69.34;99765.50;10458241;28;20500;-81
2022/03/05 18:32:14;;;;;;;8.85;4.00;;;;;;;3.70;69.31;99915.94;10489448;28;20037;-81
2022/03/05 18:37:14;;;;;;;8.75;4.47;;;;;;;3.40;70.54;99885.31;10499789;28;20101;-83
2022/03/05 18:42:15;;;;;;;14.38;4.53;;;;;;;3.62;70.29;99919.25;10481365;28;20495;-81
2022/03/05 18:47:17;;;;;;;8.23;4.40;;;;;;;3.59;69.71;99926.56;10481674;28;20036;-86
2022/03/05 18:52:18;;;;;;;6.63;4.07;;;;;;;1.88;70.50;99664.06;10498918;28;20044;-85
2022/03/05 18:57:19;;;;;;;8.45;5.18;;;;;;;3.29;71.06;99922.16;10498998;28;20044;-84
2022/03/05 19:02:20;;;;;;;14.88;5.45;;;;;;;2.23;70.87;99764.09;10499056;28;20040;-84
2022/03/05 19:07:20;;;;;;;8.63;4.57;;;;;;;3.25;71.09;99954.88;10498137;28;20068;-84
2022/03/05 19:12:21;;;;;;;7.53;4.25;;;;;;;3.16;71.84;99967.81;10498172;28;20044;-85
2022/03/05 19:17:22;;;;;;;7.90;4.80;;;;;;;2.26;71.23;99803.16;10497340;28;20051;-84
2022/03/05 19:22:23;;;;;;;11.63;5.60;;;;;;;2.29;70.72;99836.97;10497202;28;20036;-84
2022/03/05 19:27:25;;;;;;;10.70;5.72;;;;;;;3.04;71.29;99955.75;10497591;28;20037;-84
2022/03/05 19:32:26;;;;;;;9.02;5.13;;;;;;;2.70;70.27;99911.34;10496791;28;20127;-83
2022/03/05 19:37:27;;;;;;;8.35;4.50;;;;;;;2.74;70.61;99938.97;10478312;28;20095;-83
2022/03/05 19:42:28;;;;;;;16.17;5.20;;;;;;;2.10;70.63;99854.34;10497440;28;20146;-83
2022/03/05 19:47:29;;;;;;;9.30;5.45;;;;;;;1.93;70.88;99832.97;10496361;28;20449;-84
2022/03/05 19:52:29;;;;;;;12.93;5.97;;;;;;;1.98;70.34;99853.56;10497003;28;20033;-81
2022/03/05 19:57:30;;;;;;;14.77;6.15;;;;;;;2.51;70.96;99964.50;10496865;28;20052;-83
2022/03/05 20:02:31;;;;;;;13.95;5.63;;;;;;;1.67;70.75;99845.53;10473125;28;20440;-82
2022/03/05 20:07:32;;;;;;;14.98;6.07;;;;;;;2.21;71.55;99957.31;10464204;28;20131;-82
2022/03/05 20:12:34;;;;;;;10.82;6.50;;;;;;;1.40;71.43;99838.13;10495874;28;20128;-83
2022/03/05 20:17:35;;;;;;;17.75;6.43;;;;;;;2.21;71.63;99988.75;10476180;28;20132;-84
2022/03/05 20:22:36;;;;;;;14.68;6.15;;;;;;;0.70;71.92;99747.72;10454181;28;20127;-83
2022/03/05 20:27:38;;;;;;;13.25;6.30;;;;;;;1.70;71.82;99936.94;10454242;28;20416;-82
2022/03/05 20:32:39;;;;;;;12.52;6.13;;;;;;;0.97;71.83;99812.72;10455485;28;20041;-84
2022/03/05 20:37:41;;;;;;;11.95;6.25;;;;;;;1.87;71.56;99950.50;10436231;28;20086;-84
2022/03/05 20:42:43;;;;;;;14.20;6.47;;;;;;;2.06;71.84;99987.38;10455471;28;20156;-84
2022/03/05 20:47:44;;;;;;;11.60;6.20;;;;;;;2.14;71.50;99989.38;10455627;28;20044;-85
2022/03/05 20:52:45;;;;;;;10.15;5.10;;;;;;;2.22;70.89;99982.59;10462142;28;20098;-79
2022/03/05 20:57:46;;;;;;;17.27;5.88;;;;;;;0.46;70.01;99703.41;10463997;28;20561;-83
2022/03/05 21:02:47;;;;;;;20.50;5.88;;;;;;;1.50;70.26;99870.47;10479787;28;20076;-83
2022/03/05 21:07:47;;;;;;;18.65;5.25;;;;;;;1.18;70.14;99831.13;10461777;28;20037;-81
2022/03/05 21:12:50;;;;;;;26.63;5.68;;;;;;;1.01;69.94;99821.16;10461611;28;20045;-84
2022/03/05 21:17:51;;;;;;;29.05;5.50;;;;;;;2.07;69.89;100003.94;10462240;28;20175;-84
2022/03/05 21:22:52;;;;;;;27.02;5.85;;;;;;;2.01;69.92;100005.25;10461143;28;20135;-83
2022/03/05 21:27:53;;;;;;;17.17;4.70;;;;;;;1.18;69.39;99880.00;10460666;28;20037;-81
2022/03/05 21:32:54;;;;;;;18.35;5.22;;;;;;;0.96;69.33;99838.97;10461386;28;20037;-83
2022/03/05 21:37:54;;;;;;;13.05;4.70;;;;;;;1.70;68.95;99981.47;10460795;28;20040;-79
2022/03/05 21:42:55;;;;;;;9.60;4.78;;;;;;;1.98;68.74;100031.69;10460453;28;20485;-82
2022/03/05 21:47:56;;;;;;;17.20;5.45;;;;;;;1.44;68.69;99946.88;10460306;28;20139;-83
2022/03/05 21:52:57;;;;;;;15.32;4.90;;;;;;;1.56;68.65;99959.00;10460407;28;20037;-84
2022/03/05 21:57:58;;;;;;;8.13;4.75;;;;;;;1.91;68.92;100026.09;10459887;28;20091;-81
2022/03/05 22:02:59;;;;;;;12.07;5.07;;;;;;;2.01;68.97;100068.13;10459089;28;20103;-83
2022/03/05 22:08:00;;;;;;;15.18;5.28;;;;;;;1.73;69.04;100017.06;10459659;28;20041;-85
2022/03/05 22:13:01;;;;;;;12.75;5.15;;;;;;;1.45;69.48;99981.72;10460527;28;20068;-84
2022/03/05 22:18:01;;;;;;;10.48;5.45;;;;;;;1.60;68.94;100004.09;10459814;28;20484;-82
2022/03/05 22:23:02;;;;;;;10.77;5.93;;;;;;;0.93;69.42;99876.69;10459258;28;20489;-84
2022/03/05 22:28:03;;;;;;;9.85;5.30;;;;;;;1.52;69.25;99977.66;10457991;28;20041;-83
2022/03/05 22:33:04;;;;;;;9.75;4.78;;;;;;;1.79;69.15;100006.94;10458426;28;20037;-83
2022/03/05 22:38:05;;;;;;;10.00;5.38;;;;;;;1.92;69.24;100034.81;10457450;28;20040;-83
2022/03/05 22:43:06;;;;;;;11.15;5.65;;;;;;;2.16;69.37;100064.31;10457838;28;20548;-84
2022/03/05 22:48:07;;;;;;;10.55;5.55;;;;;;;2.20;69.48;100070.97;10457936;28;20136;-83
2022/03/05 22:53:08;;;;;;;9.95;5.85;;;;;;;1.97;69.08;100032.63;10458135;28;20049;-84
2022/03/05 22:58:09;;;;;;;12.70;5.97;;;;;;;1.76;69.11;100012.41;10457384;28;20056;-83
2022/03/05 23:13:49;;;;;;;9.88;5.78;;;;;;;1.93;69.23;100066.09;10456131;28;20040;-84
2022/03/05 23:18:50;;;;;;;9.40;5.65;;;;;;;1.65;68.86;100009.81;10457099;28;20412;-85
2022/03/05 23:23:51;;;;;;;14.85;6.43;;;;;;;1.66;68.91;100018.50;10455227;28;20036;-83
2022/03/05 23:28:52;;;;;;;12.60;6.75;;;;;;;1.17;68.69;99934.13;10438956;28;20037;-84
2022/03/05 23:33:53;;;;;;;17.70;6.15;;;;;;;1.76;68.72;100033.34;10456170;28;20040;-83
2022/03/05 23:38:53;;;;;;;11.05;5.97;;;;;;;2.20;68.87;100110.28;10455860;28;20194;-84
2022/03/05 23:43:54;;;;;;;11.77;6.20;;;;;;;1.01;68.92;99925.78;10455880;28;20044;-84
2022/03/05 23:48:55;;;;;;;12.65;6.53;;;;;;;1.59;68.49;100018.97;10455493;28;20528;-84
2022/03/05 23:53:56;;;;;;;12.02;6.30;;;;;;;1.18;68.44;99956.72;10455512;28;20033;-83
2022/03/05 23:58:57;;;;;;;11.40;6.28;;;;;;;2.05;68.82;100111.47;10456305;28;20052;-81
